Alamo, California
Current Conditions -  °F | °C
As of 10:53 PM on Tuesday 27 Jan 2015 (Local Time) from KCCR Reporting Station
Clear Clear  
Wind Chill: 10°   Ceiling: Unl
Heat Index: 10°   Visibility: 10mi
Dew Point:   Wind: 3mph
Humidity: 83%   Direction: 130°SE
Pressure: 30.27"   Gusts: NA
Location:  37.85°N, 122.03°W
Report Text: KCCR 280653Z AUTO 13003KT 10SM CLR 10/07 A3027 RMK AO2 SLP237 T01000072
Loading
Personal Weather Stations






























Interactive Weather Map New forecast layout! Learn more

10-Day Weather Forecast

Advertisements
Track Severe Weather on mobile